Date,TemperatureHighF,TemperatureAvgF,TemperatureLowF,DewpointHighF,DewpointAvgF,DewpointLowF,HumidityHigh,HumidityAvg,HumidityLow,PressureMaxIn,PressureMinIn,WindSpeedMaxMPH,WindSpeedAvgMPH,GustSpeedMaxMPH,PrecipitationSumIn
2013-10-1,50.5,42.8,28.6,42.6,37.8,28.6,100,83,66,30.16,29.97,22,5,22,0.00
2013-10-2,49.4,36.2,23.3,39.3,32.9,23.3,100,89,59,30.15,30.00,17,3,17,0.00
2013-10-3,52.9,40.4,27.9,40.7,35.2,27.2,100,83,61,30.36,30.09,13,2,13,0.00
2013-10-4,58.8,39.5,22.4,39.6,31.7,22.3,100,78,40,30.43,30.34,11,2,11,0.00
2013-10-5,72.5,44.6,24.0,45.1,34.9,24.0,100,75,29,30.36,30.20,9,1,9,0.00
2013-10-6,73.2,48.7,25.9,45.9,36.7,25.8,100,69,34,30.22,30.00,15,2,15,0.00
2013-10-7,57.4,48.6,43.3,45.1,39.1,32.0,89,71,41,30.08,29.95,27,7,27,0.00
2013-10-8,50.0,44.1,36.0,41.0,38.6,35.5,100,82,67,30.08,29.91,18,5,18,0.00
2013-10-9,44.7,38.7,33.3,39.5,36.9,33.3,100,94,78,30.04,29.94,8,1,8,0.00
2013-10-10,55.8,41.7,26.6,42.0,36.0,26.6,100,83,57,30.03,29.90,19,3,19,0.00
2013-10-11,54.0,39.1,24.4,42.9,34.8,24.4,100,86,63,30.08,30.02,12,1,12,0.00
2013-10-12,47.9,38.8,27.8,42.9,37.2,27.7,100,94,77,30.11,30.00,8,1,8,0.00
2013-10-13,52.3,41.8,27.8,43.3,38.5,27.8,100,89,63,30.27,30.10,8,1,8,0.00
2013-10-14,54.4,37.2,22.3,41.8,32.2,22.3,100,84,56,30.33,30.26,10,1,10,0.00
2013-10-15,60.4,37.3,19.0,39.0,30.5,18.8,100,80,43,30.34,30.14,10,2,10,0.00
2013-10-16,60.4,39.8,23.3,40.4,31.5,23.3,100,77,39,30.17,30.09,9,1,9,0.00
2013-10-17,61.0,39.6,23.0,41.8,32.4,23.0,100,79,47,30.24,30.17,8,1,8,0.00
2013-10-18,62.3,40.2,22.7,44.7,34.3,22.7,100,82,52,30.25,30.15,6,1,8,0.00
2013-10-19,76.8,46.0,23.2,45.5,34.5,23.1,100,72,26,30.17,30.08,10,1,10,0.00
2013-10-20,69.7,44.9,25.2,42.3,34.2,24.2,98,72,36,30.18,30.11,8,1,8,0.00
2013-10-21,69.2,45.3,26.4,45.1,36.6,26.4,100,76,39,30.18,30.11,8,1,8,0.00
2013-10-22,69.6,44.7,26.4,46.6,37.4,26.4,100,80,41,30.17,30.06,7,1,8,0.00
2013-10-23,66.5,44.1,26.4,47.3,37.5,26.4,100,81,47,30.11,30.04,8,1,8,0.00
2013-10-24,69.6,43.8,25.9,50.0,38.4,25.9,100,84,49,30.13,30.04,7,0,8,0.00
2013-10-25,69.4,44.8,26.0,49.8,37.4,26.0,100,80,40,30.24,30.12,7,1,8,0.00
2013-10-26,65.2,41.7,25.4,46.8,35.8,25.4,100,83,48,30.25,30.10,9,1,9,0.00
2013-10-27,54.7,37.9,23.6,42.2,35.2,23.6,100,92,45,30.11,29.76,29,4,29,0.00
2013-10-28,40.7,35.3,25.9,40.7,31.6,24.7,100,87,69,29.92,29.79,18,4,18,0.00
2013-10-29,47.5,31.0,18.0,31.2,25.0,17.8,100,81,51,30.01,29.92,6,1,8,0.00
2013-10-30,57.0,36.4,17.8,39.3,29.9,17.4,100,80,44,30.12,30.00,14,2,14,0.00
2013-10-31,59.8,45.8,33.2,52.4,43.3,32.7,100,92,77,30.23,30.11,21,4,21,0.00